Time;durP1;ratioP1;P1;durP2;ratioP2;P2;SDS_P1;SDS_P2;PMS_P1;PMS_P2;Temp;Humidity;BMP_temperature;BMP_pressure;BME280_temperature;BME280_humidity;BME280_pressure;Samples;Min_cycle;Max_cycle;Signal;HPM_P1;HPM_P2
2022/04/16 00:02:14;;;;;;;3.88;3.28;;;3.90;98.10;;;;;;5047207;28;20199;-77
2022/04/16 00:04:45;;;;;;;4.13;3.20;;;;;;;;;;5046789;28;20306;-78
2022/04/16 00:07:16;;;;;;;4.57;2.83;;;;;;;;;;5047072;28;20192;-78
2022/04/16 00:09:44;;;;;;;4.82;3.90;;;4.00;98.40;;;;;;5046301;28;20207;-78
2022/04/16 00:12:12;;;;;;;3.35;3.15;;;4.00;94.50;;;;;;5046660;28;20279;-80
2022/04/16 00:14:39;;;;;;;4.72;2.92;;;;;;;;;;5043774;28;20270;-80
2022/04/16 00:17:06;;;;;;;3.72;2.90;;;4.00;99.90;;;;;;5040770;28;20214;-79
2022/04/16 00:19:36;;;;;;;8.90;3.40;;;3.30;99.90;;;;;;5039695;28;20203;-80
2022/04/16 00:22:07;;;;;;;4.47;4.05;;;3.60;99.90;;;;;;5042067;28;20230;-80
2022/04/16 00:24:34;;;;;;;6.55;5.20;;;4.00;99.90;;;;;;5047709;28;20290;-80
2022/04/16 00:27:02;;;;;;;8.55;7.45;;;4.00;99.90;;;;;;5046802;28;20206;-77
2022/04/16 00:29:30;;;;;;;10.98;9.88;;;3.90;99.90;;;;;;5044397;28;20199;-79
2022/04/16 00:31:56;;;;;;;15.02;11.15;;;3.90;99.90;;;;;;5041506;28;20239;-80
2022/04/16 00:34:23;;;;;;;12.90;10.98;;;3.80;99.90;;;;;;5039040;28;20246;-81
2022/04/16 00:36:50;;;;;;;7.68;6.63;;;3.80;99.90;;;;;;5038222;28;20215;-80
2022/04/16 00:39:17;;;;;;;5.45;4.88;;;3.90;99.90;;;;;;5042133;28;20666;-80
2022/04/16 00:41:44;;;;;;;8.40;4.30;;;3.90;99.90;;;;;;5041148;28;20685;-80
2022/04/16 00:44:11;;;;;;;10.10;4.20;;;3.90;99.90;;;;;;5038597;28;20255;-80
2022/04/16 00:46:38;;;;;;;7.18;4.03;;;3.80;99.90;;;;;;5038086;28;20207;-80
2022/04/16 00:49:05;;;;;;;3.47;3.17;;;3.80;99.90;;;;;;5037581;28;20204;-80
2022/04/16 00:51:34;;;;;;;2.88;2.58;;;3.80;99.90;;;;;;5037515;28;20214;-79
2022/04/16 00:54:01;;;;;;;4.30;2.75;;;3.70;99.90;;;;;;5038974;28;20282;-78
2022/04/16 00:56:28;;;;;;;5.05;3.10;;;3.70;99.90;;;;;;5037490;28;20238;-79
2022/04/16 00:58:55;;;;;;;3.03;2.35;;;3.70;99.90;;;;;;5036877;28;20204;-80
2022/04/16 01:01:22;;;;;;;5.68;2.88;;;3.70;99.90;;;;;;5037201;28;20269;-80
2022/04/16 01:03:49;;;;;;;6.22;2.65;;;3.60;99.90;;;;;;5040588;28;20251;-81
2022/04/16 01:06:17;;;;;;;3.20;2.17;;;3.70;99.90;;;;;;5039370;28;20215;-81
2022/04/16 01:08:44;;;;;;;2.90;2.33;;;3.60;99.90;;;;;;5040048;28;20207;-81
2022/04/16 01:11:11;;;;;;;2.95;2.40;;;3.60;99.90;;;;;;5038149;28;20716;-80
2022/04/16 01:13:38;;;;;;;5.53;2.75;;;3.60;99.90;;;;;;5049356;28;20212;-78
2022/04/16 01:16:05;;;;;;;5.40;2.95;;;3.60;99.90;;;;;;5046887;28;20274;-79
2022/04/16 01:18:33;;;;;;;2.65;2.45;;;3.60;99.90;;;;;;5042462;28;20234;-81
2022/04/16 01:21:00;;;;;;;2.97;2.55;;;3.60;99.90;;;;;;5038440;28;20207;-79
2022/04/16 01:23:28;;;;;;;2.53;2.30;;;3.50;99.90;;;;;;5037390;28;20231;-81
2022/04/16 01:25:55;;;;;;;3.65;2.05;;;3.50;99.90;;;;;;5038115;28;20207;-78
2022/04/16 01:28:22;;;;;;;3.38;2.10;;;3.40;99.90;;;;;;5037509;28;20214;-81
2022/04/16 01:30:49;;;;;;;3.97;2.80;;;3.50;99.90;;;;;;5037720;28;20215;-81
2022/04/16 01:33:16;;;;;;;2.60;2.10;;;3.50;99.90;;;;;;5036731;28;20223;-80
2022/04/16 01:35:42;;;;;;;7.30;3.45;;;3.50;99.90;;;;;;5039411;28;20226;-79
2022/04/16 01:38:09;;;;;;;6.18;2.85;;;3.40;99.90;;;;;;5041146;28;20295;-80
2022/04/16 01:40:38;;;;;;;2.55;2.15;;;3.40;99.90;;;;;;5041706;28;20230;-79
2022/04/16 01:43:05;;;;;;;4.20;2.95;;;3.50;99.90;;;;;;5040614;28;20223;-80
2022/04/16 01:45:33;;;;;;;4.93;2.70;;;3.70;99.90;;;;;;5046259;28;20206;-79
2022/04/16 01:48:00;;;;;;;6.55;3.47;;;3.40;99.90;;;;;;5052893;28;20218;-79
2022/04/16 01:50:28;;;;;;;4.13;3.33;;;3.40;99.90;;;;;;5051800;28;20630;-78
2022/04/16 01:52:55;;;;;;;3.95;2.63;;;3.10;99.90;;;;;;5042816;28;20208;-78
2022/04/16 01:55:22;;;;;;;4.65;2.92;;;3.40;99.90;;;;;;5043980;28;20225;-78
2022/04/16 01:57:50;;;;;;;4.25;2.25;;;3.30;99.90;;;;;;5044636;28;20208;-78
2022/04/16 02:00:19;;;;;;;3.28;2.95;;;3.40;99.90;;;;;;5045321;28;20208;-78
2022/04/16 02:02:46;;;;;;;4.10;2.80;;;3.30;99.90;;;;;;5040150;28;20203;-81
2022/04/16 02:05:12;;;;;;;4.53;2.42;;;3.30;99.90;;;;;;5039074;28;20200;-80
2022/04/16 02:07:39;;;;;;;3.42;2.58;;;3.30;99.90;;;;;;5040453;28;20682;-80
2022/04/16 02:10:07;;;;;;;5.35;2.35;;;3.30;99.90;;;;;;5042238;28;20241;-80
2022/04/16 02:12:34;;;;;;;3.72;3.03;;;3.30;99.90;;;;;;5041318;28;20218;-80
2022/04/16 02:15:02;;;;;;;2.95;2.55;;;3.40;99.90;;;;;;5041287;28;20247;-80
2022/04/16 02:17:29;;;;;;;3.33;3.08;;;3.30;99.90;;;;;;5041468;28;20670;-79
2022/04/16 02:19:56;;;;;;;5.30;2.83;;;3.30;99.90;;;;;;5040711;28;20577;-80
2022/04/16 02:22:23;;;;;;;6.13;2.65;;;3.30;99.90;;;;;;5040732;28;20211;-80
2022/04/16 02:24:49;;;;;;;2.65;2.45;;;3.10;99.90;;;;;;5041247;28;20762;-78
2022/04/16 02:27:16;;;;;;;2.85;2.30;;;3.20;99.90;;;;;;5040448;28;20266;-79
2022/04/16 02:29:43;;;;;;;4.72;2.63;;;3.30;99.90;;;;;;5039981;28;20203;-80
2022/04/16 02:32:11;;;;;;;3.67;2.50;;;3.30;99.90;;;;;;5039327;28;20203;-78
2022/04/16 02:34:38;;;;;;;2.85;2.55;;;3.30;99.90;;;;;;5039698;28;20354;-81
2022/04/16 02:37:05;;;;;;;6.93;2.85;;;3.40;99.90;;;;;;5042309;28;20234;-79
2022/04/16 02:39:31;;;;;;;3.35;2.60;;;3.40;99.90;;;;;;5044969;28;20647;-79
2022/04/16 02:42:03;;;;;;;4.97;3.45;;;3.40;99.90;;;;;;5051102;28;20207;-80
2022/04/16 02:47:15;;;;;;;4.13;2.30;;;3.40;99.90;;;;;;5055292;28;20211;-78
2022/04/16 02:49:43;;;;;;;3.60;2.13;;;3.50;99.90;;;;;;5050962;28;20208;-78
2022/04/16 02:52:10;;;;;;;2.72;2.45;;;3.50;99.90;;;;;;5047774;28;20203;-81
2022/04/16 02:54:37;;;;;;;3.25;2.72;;;3.50;99.90;;;;;;5040481;28;20227;-79
2022/04/16 02:57:04;;;;;;;4.47;2.30;;;3.60;99.90;;;;;;5041489;28;20203;-78
2022/04/16 02:59:33;;;;;;;3.25;2.95;;;3.60;99.90;;;;;;5048523;28;20204;-80
2022/04/16 03:02:00;;;;;;;2.88;2.50;;;3.60;99.90;;;;;;5049966;28;20230;-79
2022/04/16 03:04:28;;;;;;;3.92;2.70;;;3.70;99.90;;;;;;5048699;28;20251;-78
2022/04/16 03:06:55;;;;;;;5.65;4.18;;;3.70;99.90;;;;;;5044008;28;20265;-82
2022/04/16 03:09:22;;;;;;;2.80;2.60;;;3.70;99.90;;;;;;5042929;28;20204;-81
2022/04/16 03:11:49;;;;;;;3.03;2.30;;;3.70;99.90;;;;;;5042289;28;20663;-81
2022/04/16 03:19:55;;;;;;;2.50;2.33;;;3.80;99.90;;;;;;5041631;28;20187;-80
2022/04/16 03:22:22;;;;;;;10.20;3.00;;;3.80;99.90;;;;;;5043327;28;20199;-82
2022/04/16 03:24:49;;;;;;;2.60;2.40;;;3.80;99.90;;;;;;5042999;28;20255;-81
2022/04/16 03:27:16;;;;;;;2.92;2.40;;;3.70;99.90;;;;;;5042693;28;20558;-81
2022/04/16 03:29:43;;;;;;;3.50;2.50;;;3.70;99.90;;;;;;5042804;28;20235;-82
2022/04/16 03:32:09;;;;;;;4.18;2.63;;;3.70;99.90;;;;;;5043204;28;20208;-81
2022/04/16 03:34:37;;;;;;;2.40;2.20;;;3.70;99.90;;;;;;5042263;28;20222;-81
2022/04/16 03:37:08;;;;;;;2.45;2.22;;;3.70;99.90;;;;;;5043703;28;20211;-79
2022/04/16 03:39:35;;;;;;;8.07;2.42;;;3.70;99.90;;;;;;5044090;28;20208;-80
2022/04/16 03:42:02;;;;;;;4.75;2.88;;;3.70;99.90;;;;;;5043212;28;20265;-79
2022/04/16 03:44:29;;;;;;;3.05;2.80;;;3.70;99.90;;;;;;5042134;28;20223;-81
2022/04/16 03:46:56;;;;;;;4.15;2.67;;;3.70;99.90;;;;;;5043152;28;20211;-81
2022/04/16 03:49:24;;;;;;;2.80;2.58;;;3.60;99.90;;;;;;5044055;28;20207;-82
2022/04/16 03:51:51;;;;;;;5.75;2.20;;;3.70;99.90;;;;;;5046151;28;20705;-81
2022/04/16 04:00:03;;;;;;;4.70;1.95;;;3.70;99.90;;;;;;5046056;28;20190;-81
2022/04/16 04:02:31;;;;;;;5.30;2.35;;;3.60;99.90;;;;;;5044296;28;20646;-79
2022/04/16 04:04:58;;;;;;;4.00;2.20;;;3.60;99.90;;;;;;5052782;28;20231;-80
2022/04/16 04:07:25;;;;;;;3.83;2.45;;;3.70;99.90;;;;;;5057920;28;20208;-80
2022/04/16 04:09:53;;;;;;;2.83;2.45;;;3.70;99.90;;;;;;5057767;28;20234;-79
2022/04/16 04:12:20;;;;;;;2.70;2.30;;;3.70;99.90;;;;;;5058082;28;20195;-80
2022/04/16 04:14:47;;;;;;;3.42;2.63;;;3.70;99.90;;;;;;5054225;28;20227;-81
2022/04/16 04:17:15;;;;;;;4.80;2.87;;;3.70;99.90;;;;;;5041738;28;20504;-80
2022/04/16 04:19:43;;;;;;;5.35;2.38;;;3.80;99.90;;;;;;5040591;28;20453;-81
2022/04/16 04:22:11;;;;;;;2.55;2.20;;;3.80;99.90;;;;;;5045187;28;20250;-77
2022/04/16 04:24:39;;;;;;;6.47;2.45;;;3.70;99.90;;;;;;5046943;28;20223;-78
2022/04/16 04:27:08;;;;;;;9.88;3.15;;;3.30;99.90;;;;;;5041989;28;20207;-81
2022/04/16 04:29:36;;;;;;;3.00;2.60;;;3.70;99.90;;;;;;5038796;28;20280;-80
2022/04/16 04:32:03;;;;;;;3.53;2.85;;;3.70;99.90;;;;;;5039233;28;20208;-81
2022/04/16 04:34:31;;;;;;;7.35;3.75;;;3.80;99.90;;;;;;5046054;28;20228;-79
2022/04/16 04:36:58;;;;;;;3.40;2.47;;;3.80;99.90;;;;;;5043626;28;20207;-80
2022/04/16 04:39:25;;;;;;;2.45;1.95;;;3.80;99.90;;;;;;5040901;28;20678;-82
2022/04/16 04:41:52;;;;;;;4.47;2.55;;;3.80;99.90;;;;;;5040524;28;20207;-80
2022/04/16 04:44:20;;;;;;;4.30;2.88;;;3.80;99.90;;;;;;5041862;28;20231;-81
2022/04/16 04:46:47;;;;;;;2.45;2.25;;;3.80;99.90;;;;;;5039525;28;20215;-80
2022/04/16 04:49:14;;;;;;;2.88;2.60;;;3.80;99.90;;;;;;5040608;28;20204;-80
2022/04/16 04:51:41;;;;;;;6.85;2.50;;;3.80;99.90;;;;;;5038408;28;20208;-79
2022/04/16 04:54:08;;;;;;;3.47;2.83;;;3.80;99.90;;;;;;5039008;28;20228;-81
2022/04/16 04:56:35;;;;;;;3.58;2.40;;;3.80;99.90;;;;;;5037298;28;20235;-79
2022/04/16 04:59:03;;;;;;;5.00;2.70;;;3.90;99.90;;;;;;5039013;28;20210;-81
2022/04/16 05:01:30;;;;;;;5.18;2.83;;;3.90;99.90;;;;;;5045914;28;20215;-82
2022/04/16 05:03:57;;;;;;;3.83;2.30;;;3.90;99.90;;;;;;5043966;28;20246;-81
2022/04/16 05:06:24;;;;;;;3.10;2.15;;;3.90;99.90;;;;;;5042969;28;20203;-81
2022/04/16 05:08:51;;;;;;;3.70;2.50;;;4.00;99.90;;;;;;5044011;28;20200;-81
2022/04/16 05:11:17;;;;;;;8.50;2.30;;;3.90;99.90;;;;;;5043032;28;20199;-80
2022/04/16 05:13:44;;;;;;;4.80;2.20;;;3.90;99.90;;;;;;5041918;28;20227;-80
2022/04/16 05:16:12;;;;;;;4.93;2.28;;;4.30;99.90;;;;;;5041319;28;20694;-81
2022/04/16 05:18:40;;;;;;;4.47;2.88;;;4.10;99.90;;;;;;5042068;28;20211;-81
2022/04/16 05:21:07;;;;;;;4.45;2.47;;;4.20;99.90;;;;;;5042074;28;20234;-80
2022/04/16 05:23:35;;;;;;;4.50;2.10;;;4.20;99.90;;;;;;5040027;28;20227;-77
2022/04/16 05:26:02;;;;;;;3.47;2.40;;;4.20;99.90;;;;;;5039791;28;20228;-79
2022/04/16 05:28:28;;;;;;;4.50;3.40;;;4.20;99.90;;;;;;5040383;28;20204;-81
2022/04/16 05:30:58;;;;;;;3.55;2.15;;;4.10;99.90;;;;;;5042197;28;20203;-80
2022/04/16 05:36:10;;;;;;;6.93;2.53;;;4.00;99.90;;;;;;5038220;28;20219;-80
2022/04/16 05:38:37;;;;;;;2.78;2.58;;;4.20;99.90;;;;;;5037653;28;20199;-80
2022/04/16 05:41:04;;;;;;;3.58;2.67;;;4.20;99.90;;;;;;5036905;28;20242;-81
2022/04/16 05:43:30;;;;;;;2.72;2.33;;;4.40;99.90;;;;;;5037123;28;20266;-80
2022/04/16 05:45:57;;;;;;;3.55;2.30;;;4.40;96.00;;;;;;5037266;28;20287;-82
2022/04/16 05:48:23;;;;;;;3.95;2.30;;;4.40;94.90;;;;;;5036520;28;20200;-80
2022/04/16 05:50:50;;;;;;;3.55;2.90;;;4.40;90.10;;;;;;5036295;28;20291;-80
2022/04/16 05:53:19;;;;;;;3.40;2.30;;;4.30;99.90;;;;;;5053103;22;20238;-82
2022/04/16 05:55:48;;;;;;;4.60;2.83;;;4.50;90.00;;;;;;5077574;28;20266;-83
2022/04/16 05:58:15;;;;;;;2.70;2.35;;;4.50;51.20;;;;;;5071796;28;20203;-83
2022/04/16 06:00:41;;;;;;;4.95;2.80;;;4.50;53.50;;;;;;5078455;28;20189;-83
2022/04/16 06:03:08;;;;;;;4.20;2.53;;;4.70;99.90;;;;;;5067053;28;20203;-83
2022/04/16 06:05:35;;;;;;;7.00;2.83;;;4.50;99.10;;;;;;5065370;28;20215;-83
2022/04/16 06:08:02;;;;;;;6.95;2.75;;;4.70;96.30;;;;;;5065991;28;20199;-83
2022/04/16 06:10:30;;;;;;;5.20;2.70;;;4.60;54.70;;;;;;5064452;28;20210;-83
2022/04/16 06:12:57;;;;;;;3.25;2.80;;;4.60;84.00;;;;;;5060414;28;20260;-83
2022/04/16 06:15:24;;;;;;;4.80;2.97;;;4.60;83.20;;;;;;5057332;28;20249;-83
2022/04/16 06:17:50;;;;;;;3.55;3.22;;;4.60;58.50;;;;;;5057966;28;20198;-84
2022/04/16 06:20:17;;;;;;;5.13;2.60;;;4.80;45.30;;;;;;5073599;28;20230;-84
2022/04/16 06:22:44;;;;;;;4.32;2.70;;;;;;;;;;5071321;28;20297;-84
2022/04/16 06:25:12;;;;;;;3.42;2.90;;;5.40;1.00;;;;;;5065765;28;20248;-84
2022/04/16 06:27:40;;;;;;;4.00;3.25;;;5.10;1.00;;;;;;5062443;28;20207;-83
2022/04/16 06:30:09;;;;;;;3.95;3.22;;;5.00;1.00;;;;;;5059188;28;20207;-84
2022/04/16 06:32:36;;;;;;;5.00;2.75;;;4.90;1.00;;;;;;5063962;28;20199;-84
2022/04/16 06:35:05;;;;;;;4.10;2.88;;;4.90;1.00;;;;;;5075932;28;20199;-84
2022/04/16 06:37:32;;;;;;;2.92;2.72;;;4.90;1.00;;;;;;5076765;28;20229;-84
2022/04/16 06:39:58;;;;;;;2.63;2.40;;;5.30;1.00;;;;;;5076715;28;20233;-84
2022/04/16 06:42:25;;;;;;;5.97;3.30;;;5.10;1.00;;;;;;5074825;28;20207;-85
2022/04/16 06:44:53;;;;;;;3.28;2.97;;;5.10;1.00;;;;;;5066662;28;20245;-84
2022/04/16 06:47:20;;;;;;;2.60;2.40;;;5.10;1.00;;;;;;5064107;28;20211;-85
2022/04/16 06:49:46;;;;;;;4.38;2.60;;;5.10;1.00;;;;;;5074655;28;20203;-85
2022/04/16 06:52:13;;;;;;;4.47;3.50;;;5.20;1.00;;;;;;5067582;28;20211;-84
2022/04/16 06:54:42;;;;;;;5.13;3.03;;;5.40;1.00;;;;;;5068236;28;20231;-85
2022/04/16 06:57:08;;;;;;;3.65;3.25;;;5.70;1.00;;;;;;5068541;28;20205;-85
2022/04/16 06:59:37;;;;;;;5.10;3.22;;;5.80;99.90;;;;;;5067905;28;20210;-85
2022/04/16 07:02:05;;;;;;;4.07;3.00;;;5.70;99.90;;;;;;5067815;28;20294;-85
2022/04/16 07:04:32;;;;;;;4.30;3.88;;;5.80;99.90;;;;;;5067479;28;20220;-84
2022/04/16 07:06:59;;;;;;;3.40;3.20;;;5.50;99.90;;;;;;5067898;28;20207;-84
2022/04/16 07:09:25;;;;;;;6.93;4.22;;;5.40;99.90;;;;;;5067217;28;20226;-85
2022/04/16 07:11:52;;;;;;;4.82;4.05;;;5.40;99.90;;;;;;5067233;28;20219;-84
2022/04/16 07:14:19;;;;;;;4.18;3.75;;;5.50;99.90;;;;;;5067502;28;20254;-85
2022/04/16 07:16:46;;;;;;;3.97;3.67;;;5.50;99.90;;;;;;5066865;28;20582;-85
2022/04/16 07:19:14;;;;;;;5.38;3.95;;;5.40;99.90;;;;;;5066904;28;20207;-85
2022/04/16 07:21:40;;;;;;;4.28;3.47;;;5.60;99.90;;;;;;5067344;28;20208;-84
2022/04/16 07:24:07;;;;;;;6.68;3.45;;;5.60;1.00;;;;;;5062499;28;20285;-85
2022/04/16 07:26:33;;;;;;;3.40;3.10;;;5.70;1.00;;;;;;5062550;28;20227;-85
2022/04/16 07:29:00;;;;;;;4.05;3.58;;;6.40;99.90;;;;;;5069513;28;20191;-85
2022/04/16 07:31:27;;;;;;;4.38;3.78;;;6.20;99.90;;;;;;5079296;28;20582;-84
2022/04/16 07:33:54;;;;;;;4.78;3.90;;;;;;;;;;5080225;28;20218;-83
2022/04/16 07:36:22;;;;;;;5.18;4.53;;;6.50;1.00;;;;;;5080843;28;20191;-83
2022/04/16 07:38:49;;;;;;;4.85;4.40;;;6.40;1.00;;;;;;5080736;28;20186;-83
2022/04/16 07:41:15;;;;;;;6.82;4.45;;;6.50;1.00;;;;;;5075857;28;20188;-84
2022/04/16 07:43:42;;;;;;;6.07;5.50;;;6.50;99.90;;;;;;5080536;28;20209;-83
2022/04/16 07:46:08;;;;;;;8.85;5.97;;;6.30;1.00;;;;;;5080723;28;20208;-83
2022/04/16 07:48:35;;;;;;;7.30;6.60;;;6.50;1.00;;;;;;5073976;28;20211;-85
2022/04/16 07:51:02;;;;;;;7.55;6.85;;;6.40;99.90;;;;;;5068498;28;20259;-85
2022/04/16 07:53:30;;;;;;;9.43;7.97;;;6.30;99.90;;;;;;5067637;28;20225;-84
2022/04/16 07:55:57;;;;;;;10.00;7.65;;;6.10;99.90;;;;;;5068137;28;20188;-85
2022/04/16 07:58:24;;;;;;;8.15;7.45;;;6.00;1.00;;;;;;5067551;28;20210;-85
2022/04/16 08:00:51;;;;;;;8.13;6.72;;;5.90;1.00;;;;;;5068145;28;20211;-84
2022/04/16 08:03:17;;;;;;;5.55;5.05;;;6.00;99.90;;;;;;5067294;28;20208;-83
2022/04/16 08:05:44;;;;;;;6.80;6.07;;;6.10;99.90;;;;;;5067405;28;20253;-85
2022/04/16 08:08:10;;;;;;;5.13;4.72;;;6.30;1.00;;;;;;5067416;28;20207;-85
2022/04/16 08:10:38;;;;;;;3.90;3.50;;;6.60;1.00;;;;;;5067500;28;20200;-85
2022/04/16 08:13:07;;;;;;;3.22;3.03;;;7.10;99.90;;;;;;5067891;28;20209;-84
2022/04/16 08:15:34;;;;;;;4.95;3.40;;;7.10;99.90;;;;;;5066447;28;20211;-85
2022/04/16 08:18:01;;;;;;;4.10;3.13;;;7.30;1.00;;;;;;5058993;28;20200;-84
2022/04/16 08:20:28;;;;;;;3.60;3.40;;;7.50;1.00;;;;;;5059406;28;20208;-84
2022/04/16 08:22:55;;;;;;;3.53;3.22;;;7.50;99.90;;;;;;5062525;28;20214;-86
2022/04/16 08:28:08;;;;;;;5.27;3.50;;;8.20;99.90;;;;;;5065445;28;20401;-85
2022/04/16 08:30:35;;;;;;;2.50;2.40;;;8.20;1.00;;;;;;5066074;28;20451;-85
2022/04/16 08:33:02;;;;;;;4.47;3.07;;;8.30;1.00;;;;;;5076654;28;20447;-84
2022/04/16 08:35:28;;;;;;;4.00;2.77;;;8.60;99.90;;;;;;5073393;28;20464;-84
2022/04/16 08:37:55;;;;;;;3.20;3.00;;;8.50;1.00;;;;;;5069213;28;20420;-84
2022/04/16 08:40:22;;;;;;;3.97;2.90;;;;;;;;;;5065124;28;20492;-85
2022/04/16 08:42:50;;;;;;;3.60;2.90;;;8.70;99.90;;;;;;5066804;28;20456;-85
2022/04/16 08:45:18;;;;;;;13.60;8.27;;;8.80;99.90;;;;;;5068948;28;20496;-85
2022/04/16 08:47:45;;;;;;;3.20;2.90;;;8.60;1.00;;;;;;5066079;28;20442;-84
2022/04/16 08:50:14;;;;;;;2.80;2.70;;;8.50;1.00;;;;;;5065459;28;21003;-85
2022/04/16 08:52:41;;;;;;;3.77;3.23;;;8.40;1.00;;;;;;5063792;28;20821;-85
2022/04/16 08:55:12;;;;;;;4.00;3.60;;;8.70;1.00;;;;;;5062743;28;20466;-86
2022/04/16 08:57:39;;;;;;;4.90;3.10;;;8.50;1.00;;;;;;5062629;28;20499;-85
2022/04/16 09:00:08;;;;;;;2.47;2.30;;;8.30;1.00;;;;;;5063124;28;20449;-85
2022/04/16 09:02:36;;;;;;;2.63;2.43;;;8.20;1.00;;;;;;5062933;28;20475;-85
2022/04/16 09:05:06;;;;;;;2.80;2.60;;;8.10;1.00;;;;;;5062518;28;20935;-85
2022/04/16 09:07:33;;;;;;;4.00;3.67;;;8.10;1.00;;;;;;5062163;28;20445;-85
2022/04/16 09:10:07;;;;;;;4.47;3.73;;;8.10;1.00;;;;;;5062874;28;20448;-85
2022/04/16 09:12:38;;;;;;;3.20;3.00;;;8.10;1.00;;;;;;5062484;28;20419;-86
2022/04/16 09:15:08;;;;;;;3.90;3.53;;;8.20;1.00;;;;;;5060913;28;20469;-86
2022/04/16 09:17:37;;;;;;;4.00;3.37;;;8.40;1.00;;;;;;5062832;28;20467;-86
2022/04/16 09:20:04;;;;;;;4.73;4.33;;;8.40;1.00;;;;;;5062974;28;20499;-85
2022/04/16 09:22:32;;;;;;;3.43;3.13;;;8.50;1.00;;;;;;5062559;28;20464;-85
2022/04/16 09:24:59;;;;;;;3.40;3.20;;;8.50;1.00;;;;;;5063040;28;20469;-84
2022/04/16 09:27:26;;;;;;;3.60;3.40;;;8.50;1.00;;;;;;5064006;28;20442;-85
2022/04/16 09:29:53;;;;;;;3.30;3.10;;;8.60;1.00;;;;;;5066285;28;20815;-85
2022/04/16 09:32:24;;;;;;;5.57;4.50;;;8.40;1.00;;;;;;5063610;28;20455;-86
2022/04/16 09:34:52;;;;;;;3.37;3.17;;;8.50;1.00;;;;;;5064907;28;20470;-85
2022/04/16 09:37:19;;;;;;;5.80;3.10;;;8.60;1.00;;;;;;5065334;28;20500;-85
2022/04/16 09:39:46;;;;;;;2.67;2.47;;;8.60;1.00;;;;;;5065217;28;20502;-86
2022/04/16 09:42:12;;;;;;;4.13;2.80;;;8.60;1.00;;;;;;5064690;28;20453;-86
2022/04/16 09:44:39;;;;;;;3.07;2.93;;;8.70;1.00;;;;;;5067816;28;20474;-85
2022/04/16 09:47:07;;;;;;;3.03;2.73;;;8.70;1.00;;;;;;5074668;28;20511;-86
2022/04/16 09:49:34;;;;;;;3.30;3.10;;;;;;;;;;5071453;28;20446;-85
2022/04/16 09:52:06;;;;;;;3.10;2.90;;;8.90;1.00;;;;;;5074241;28;20449;-84
2022/04/16 09:54:36;;;;;;;3.10;2.90;;;9.00;1.00;;;;;;5075426;28;20498;-85
2022/04/16 09:57:03;;;;;;;3.37;3.17;;;8.90;1.00;;;;;;5074573;28;20430;-86
2022/04/16 09:59:35;;;;;;;2.83;2.57;;;8.90;1.00;;;;;;5074557;28;20449;-84
2022/04/16 10:02:04;;;;;;;2.67;2.57;;;9.00;1.00;;;;;;5075989;28;20445;-85
2022/04/16 10:04:31;;;;;;;3.37;3.07;;;9.10;1.00;;;;;;5076441;28;20457;-85
2022/04/16 10:06:58;;;;;;;4.50;2.97;;;9.10;1.00;;;;;;5071679;28;20460;-84
2022/04/16 10:09:27;;;;;;;2.90;2.77;;;9.30;1.00;;;;;;5073572;28;20452;-85
2022/04/16 10:14:47;;;;;;;3.33;3.13;;;9.70;1.00;;;;;;5075581;28;20441;-85
2022/04/16 10:17:25;;;;;;;2.97;2.87;;;9.70;1.00;;;;;;5077364;28;20434;-84
2022/04/16 10:19:54;;;;;;;3.53;3.17;;;9.70;1.00;;;;;;5070539;28;20612;-85
2022/04/16 10:22:24;;;;;;;3.03;2.93;;;9.80;1.00;;;;;;5070731;28;20477;-85
2022/04/16 10:24:56;;;;;;;3.63;3.33;;;9.60;1.00;;;;;;5069031;28;20466;-85
2022/04/16 10:27:24;;;;;;;3.10;2.80;;;9.70;1.00;;;;;;5069118;28;20851;-86
2022/04/16 10:29:51;;;;;;;4.03;2.70;;;9.70;99.90;;;;;;5069327;28;20453;-85
2022/04/16 10:32:18;;;;;;;3.37;3.07;;;9.60;99.90;;;;;;5069424;28;20449;-85
2022/04/16 10:34:46;;;;;;;3.07;2.87;;;9.80;1.00;;;;;;5069446;28;20471;-85
2022/04/16 10:37:21;;;;;;;3.27;3.07;;;9.80;99.90;;;;;;5068016;28;20514;-85
2022/04/16 10:39:48;;;;;;;2.90;2.77;;;9.90;99.90;;;;;;5073866;28;20435;-85
2022/04/16 10:42:16;;;;;;;4.10;3.80;;;10.10;99.90;;;;;;5070825;28;20461;-86
2022/04/16 10:44:47;;;;;;;3.13;2.90;;;10.10;99.90;;;;;;5077067;28;20424;-85
2022/04/16 10:47:15;;;;;;;4.20;3.13;;;10.10;99.90;;;;;;5069282;28;20597;-85
2022/04/16 10:49:43;;;;;;;3.73;3.23;;;10.10;99.90;;;;;;5066132;28;20469;-85
2022/04/16 10:52:19;;;;;;;5.13;3.10;;;10.20;99.90;;;;;;5065823;28;20445;-85
2022/04/16 10:54:47;;;;;;;4.00;3.37;;;10.40;1.00;;;;;;5065993;28;20484;-86
2022/04/16 10:57:22;;;;;;;2.70;2.50;;;10.30;1.00;;;;;;5063963;28;20420;-85
2022/04/16 10:59:49;;;;;;;3.73;2.63;;;10.30;1.00;;;;;;5065768;28;20417;-86
2022/04/16 11:02:19;;;;;;;3.00;2.67;;;10.50;99.90;;;;;;5070047;28;20495;-86
2022/04/16 11:04:56;;;;;;;3.83;2.57;;;10.50;99.90;;;;;;5067085;28;20942;-85
2022/04/16 11:07:23;;;;;;;2.57;2.10;;;10.50;99.90;;;;;;5065225;28;20465;-85
2022/04/16 11:09:52;;;;;;;2.03;1.93;;;10.50;99.90;;;;;;5065228;28;20450;-85
2022/04/16 11:12:21;;;;;;;1.90;1.80;;;10.40;99.90;;;;;;5066445;28;20446;-86
2022/04/16 11:14:49;;;;;;;4.33;2.43;;;10.50;99.90;;;;;;5063407;28;20481;-85
2022/04/16 11:17:17;;;;;;;1.63;1.53;;;10.60;99.90;;;;;;5064642;28;20503;-86
2022/04/16 11:19:44;;;;;;;2.23;2.00;;;10.70;99.90;;;;;;5063177;28;20521;-86
2022/04/16 11:22:11;;;;;;;1.93;1.77;;;10.40;1.00;;;;;;5063900;28;20441;-85
2022/04/16 11:24:39;;;;;;;1.93;1.83;;;10.40;99.90;;;;;;5064887;28;20885;-85
2022/04/16 11:35:24;;;;;;;2.70;2.17;;;10.60;99.90;;;;;;5063579;28;20491;-85
2022/04/16 11:37:54;;;;;;;2.33;2.10;;;10.50;99.90;;;;;;5063530;28;20518;-85
2022/04/16 11:40:20;;;;;;;1.87;1.77;;;10.60;99.90;;;;;;5063245;28;20453;-85
2022/04/16 11:42:47;;;;;;;2.17;1.97;;;10.90;1.00;;;;;;5065096;28;20413;-85
2022/04/16 11:45:16;;;;;;;1.63;1.53;;;10.70;99.90;;;;;;5062738;28;20496;-86
2022/04/16 11:47:42;;;;;;;1.70;1.60;;;11.00;99.90;;;;;;5064115;28;20543;-86
2022/04/16 11:50:13;;;;;;;1.50;1.40;;;11.10;99.90;;;;;;5063805;28;20457;-86
2022/04/16 11:52:40;;;;;;;1.30;1.17;;;11.20;99.90;;;;;;5063460;28;20434;-86
2022/04/16 11:55:15;;;;;;;2.13;1.30;;;11.20;99.90;;;;;;5070159;22;20925;-82
2022/04/16 11:57:47;;;;;;;1.27;1.17;;;11.00;99.90;;;;;;5039707;28;20480;-80
2022/04/16 12:00:18;;;;;;;2.30;2.10;;;10.90;99.90;;;;;;5039511;28;20431;-79
2022/04/16 12:02:47;;;;;;;2.97;1.43;;;11.10;1.00;;;;;;5041536;28;20446;-82
2022/04/16 12:05:16;;;;;;;1.30;1.20;;;11.00;99.90;;;;;;5038577;28;20475;-81
2022/04/16 12:07:43;;;;;;;1.93;1.20;;;11.20;99.90;;;;;;5039587;28;20528;-81
2022/04/16 12:10:13;;;;;;;3.50;1.43;;;11.10;1.00;;;;;;5039467;28;20457;-80
2022/04/16 12:12:47;;;;;;;1.70;1.00;;;11.00;99.90;;;;;;5040775;28;20453;-86
2022/04/16 12:15:24;;;;;;;2.13;1.17;;;11.00;99.90;;;;;;5042871;28;20450;-87
2022/04/16 12:17:51;;;;;;;2.20;1.40;;;9.40;99.90;;;;;;5044534;28;20489;-83
2022/04/16 12:20:20;;;;;;;1.80;1.20;;;11.20;99.90;;;;;;5043991;28;20442;-83
2022/04/16 12:22:48;;;;;;;2.47;1.30;;;11.50;99.90;;;;;;5042025;28;20442;-80
2022/04/16 12:25:17;;;;;;;2.20;2.00;;;11.50;99.90;;;;;;5041240;28;20462;-80
2022/04/16 12:27:45;;;;;;;2.83;1.10;;;11.50;99.90;;;;;;5040280;28;20466;-80
2022/04/16 12:30:14;;;;;;;1.40;1.30;;;11.60;99.90;;;;;;5039720;28;20454;-83
2022/04/16 12:32:42;;;;;;;1.40;1.30;;;11.40;99.90;;;;;;5038125;28;20451;-80
2022/04/16 12:35:09;;;;;;;2.20;1.30;;;11.40;99.90;;;;;;5038683;28;20477;-80
2022/04/16 12:37:37;;;;;;;1.47;1.37;;;11.40;99.90;;;;;;5041882;28;20805;-79
2022/04/16 12:40:05;;;;;;;1.00;0.90;;;11.30;99.90;;;;;;5047416;28;20577;-81
2022/04/16 12:42:32;;;;;;;1.20;1.10;;;11.50;99.90;;;;;;5042894;28;20446;-81
2022/04/16 12:44:58;;;;;;;1.37;1.10;;;11.70;99.90;;;;;;5045215;28;20470;-81
2022/04/16 12:47:25;;;;;;;1.30;1.17;;;11.80;99.90;;;;;;5045303;28;20482;-80
2022/04/16 12:49:53;;;;;;;2.10;1.17;;;11.80;99.90;;;;;;5043849;28;20446;-81
2022/04/16 12:52:20;;;;;;;1.10;1.00;;;11.90;99.90;;;;;;5044323;28;20450;-80
2022/04/16 12:54:47;;;;;;;2.27;1.40;;;11.90;99.90;;;;;;5043648;28;20478;-82
2022/04/16 12:57:13;;;;;;;1.33;1.07;;;12.10;99.90;;;;;;5044601;28;20517;-79
2022/04/16 12:59:40;;;;;;;1.10;1.10;;;12.10;99.90;;;;;;5044778;28;21015;-80
2022/04/16 13:02:07;;;;;;;1.43;1.00;;;12.20;99.90;;;;;;5041891;28;20451;-81
2022/04/16 13:04:33;;;;;;;1.13;1.03;;;12.10;99.90;;;;;;5040954;28;21004;-82
2022/04/16 13:07:01;;;;;;;1.30;1.20;;;12.00;99.90;;;;;;5042439;28;20517;-82
2022/04/16 13:09:28;;;;;;;4.87;1.30;;;12.00;99.90;;;;;;5042613;28;20497;-80
2022/04/16 13:11:55;;;;;;;2.27;0.97;;;12.00;99.90;;;;;;5041979;28;20525;-81
2022/04/16 13:14:22;;;;;;;1.33;1.20;;;12.10;99.90;;;;;;5042683;28;20471;-81
2022/04/16 13:16:49;;;;;;;1.07;0.97;;;12.10;99.90;;;;;;5041038;28;20442;-82
2022/04/16 13:19:16;;;;;;;1.50;1.40;;;12.10;99.90;;;;;;5040009;28;20455;-82
2022/04/16 13:21:43;;;;;;;2.87;1.30;;;12.20;99.90;;;;;;5039580;28;20457;-81
2022/04/16 13:24:14;;;;;;;1.47;1.37;;;12.20;99.90;;;;;;5038434;28;20490;-81
2022/04/16 13:26:40;;;;;;;0.97;0.97;;;12.30;99.90;;;;;;5038008;28;20963;-80
2022/04/16 13:29:07;;;;;;;1.53;1.27;;;12.30;99.90;;;;;;5038453;28;20505;-79
2022/04/16 13:31:34;;;;;;;2.17;1.20;;;12.30;99.90;;;;;;5038743;28;20497;-81
2022/04/16 13:34:01;;;;;;;1.33;1.17;;;12.20;99.90;;;;;;5037612;28;20490;-79